sensor_id;sensor_type;location;lat;lon;timestamp;P1;durP1;ratioP1;P2;durP2;ratioP2
27313;SDS011;14800;48.174;9.798;2023-10-08T00:01:34;9.05;;;4.70;;
27313;SDS011;14800;48.174;9.798;2023-10-08T00:04:00;8.32;;;5.43;;
27313;SDS011;14800;48.174;9.798;2023-10-08T00:06:29;6.88;;;4.60;;
27313;SDS011;14800;48.174;9.798;2023-10-08T00:08:55;6.90;;;4.80;;
27313;SDS011;14800;48.174;9.798;2023-10-08T00:11:34;6.75;;;4.28;;
27313;SDS011;14800;48.174;9.798;2023-10-08T00:14:01;6.50;;;4.72;;
27313;SDS011;14800;48.174;9.798;2023-10-08T00:16:30;6.07;;;4.57;;
27313;SDS011;14800;48.174;9.798;2023-10-08T00:18:58;6.78;;;4.47;;
27313;SDS011;14800;48.174;9.798;2023-10-08T00:21:28;5.63;;;4.43;;
27313;SDS011;14800;48.174;9.798;2023-10-08T00:23:59;5.95;;;4.60;;
27313;SDS011;14800;48.174;9.798;2023-10-08T00:26:24;9.15;;;4.68;;
27313;SDS011;14800;48.174;9.798;2023-10-08T00:28:57;6.68;;;4.50;;
27313;SDS011;14800;48.174;9.798;2023-10-08T00:31:40;7.60;;;5.13;;
27313;SDS011;14800;48.174;9.798;2023-10-08T00:34:09;5.85;;;4.38;;
27313;SDS011;14800;48.174;9.798;2023-10-08T00:36:39;8.95;;;4.30;;
27313;SDS011;14800;48.174;9.798;2023-10-08T00:39:06;6.72;;;4.63;;
27313;SDS011;14800;48.174;9.798;2023-10-08T00:41:42;10.13;;;5.07;;
27313;SDS011;14800;48.174;9.798;2023-10-08T00:44:11;6.75;;;4.38;;
27313;SDS011;14800;48.174;9.798;2023-10-08T00:46:47;6.55;;;4.88;;
27313;SDS011;14800;48.174;9.798;2023-10-08T00:49:14;6.97;;;4.63;;
27313;SDS011;14800;48.174;9.798;2023-10-08T00:51:44;8.05;;;4.97;;
27313;SDS011;14800;48.174;9.798;2023-10-08T00:54:10;7.90;;;5.15;;
27313;SDS011;14800;48.174;9.798;2023-10-08T00:56:42;8.40;;;4.93;;
27313;SDS011;14800;48.174;9.798;2023-10-08T00:59:18;6.55;;;4.72;;
27313;SDS011;14800;48.174;9.798;2023-10-08T01:01:48;6.97;;;4.57;;
27313;SDS011;14800;48.174;9.798;2023-10-08T01:04:30;9.60;;;5.45;;
27313;SDS011;14800;48.174;9.798;2023-10-08T01:06:59;6.80;;;4.97;;
27313;SDS011;14800;48.174;9.798;2023-10-08T01:09:37;7.15;;;5.03;;
27313;SDS011;14800;48.174;9.798;2023-10-08T01:14:41;7.32;;;5.22;;
27313;SDS011;14800;48.174;9.798;2023-10-08T01:17:08;6.90;;;5.03;;
27313;SDS011;14800;48.174;9.798;2023-10-08T01:19:41;8.90;;;5.28;;
27313;SDS011;14800;48.174;9.798;2023-10-08T01:22:10;7.20;;;4.60;;
27313;SDS011;14800;48.174;9.798;2023-10-08T01:24:43;6.90;;;5.03;;
27313;SDS011;14800;48.174;9.798;2023-10-08T01:27:10;6.25;;;4.55;;
27313;SDS011;14800;48.174;9.798;2023-10-08T01:29:39;9.75;;;5.30;;
27313;SDS011;14800;48.174;9.798;2023-10-08T01:32:08;8.32;;;5.28;;
27313;SDS011;14800;48.174;9.798;2023-10-08T01:34:36;7.20;;;4.88;;
27313;SDS011;14800;48.174;9.798;2023-10-08T01:37:02;6.35;;;4.93;;
27313;SDS011;14800;48.174;9.798;2023-10-08T01:39:37;8.10;;;5.20;;
27313;SDS011;14800;48.174;9.798;2023-10-08T01:42:07;10.52;;;5.15;;
27313;SDS011;14800;48.174;9.798;2023-10-08T01:44:40;5.53;;;4.57;;
27313;SDS011;14800;48.174;9.798;2023-10-08T01:47:06;6.80;;;4.85;;
27313;SDS011;14800;48.174;9.798;2023-10-08T01:49:31;7.63;;;5.20;;
27313;SDS011;14800;48.174;9.798;2023-10-08T01:51:58;8.40;;;4.78;;
27313;SDS011;14800;48.174;9.798;2023-10-08T01:54:30;5.97;;;4.40;;
27313;SDS011;14800;48.174;9.798;2023-10-08T01:57:00;5.85;;;4.55;;
27313;SDS011;14800;48.174;9.798;2023-10-08T01:59:26;8.90;;;5.80;;
27313;SDS011;14800;48.174;9.798;2023-10-08T02:01:52;7.00;;;5.10;;
27313;SDS011;14800;48.174;9.798;2023-10-08T02:04:21;8.60;;;4.88;;
27313;SDS011;14800;48.174;9.798;2023-10-08T02:06:47;8.07;;;5.15;;
27313;SDS011;14800;48.174;9.798;2023-10-08T02:09:12;7.70;;;5.10;;
27313;SDS011;14800;48.174;9.798;2023-10-08T02:11:45;7.65;;;5.18;;
27313;SDS011;14800;48.174;9.798;2023-10-08T02:14:15;7.93;;;5.07;;
27313;SDS011;14800;48.174;9.798;2023-10-08T02:16:42;6.95;;;4.43;;
27313;SDS011;14800;48.174;9.798;2023-10-08T02:19:08;7.75;;;5.10;;
27313;SDS011;14800;48.174;9.798;2023-10-08T02:21:35;8.43;;;4.55;;
27313;SDS011;14800;48.174;9.798;2023-10-08T02:24:04;8.00;;;5.15;;
27313;SDS011;14800;48.174;9.798;2023-10-08T02:26:36;6.88;;;4.97;;
27313;SDS011;14800;48.174;9.798;2023-10-08T02:29:01;7.47;;;4.50;;
27313;SDS011;14800;48.174;9.798;2023-10-08T02:31:31;8.20;;;4.70;;
27313;SDS011;14800;48.174;9.798;2023-10-08T02:33:56;6.90;;;4.22;;
27313;SDS011;14800;48.174;9.798;2023-10-08T02:36:24;7.75;;;4.55;;
27313;SDS011;14800;48.174;9.798;2023-10-08T02:38:49;8.23;;;4.72;;
27313;SDS011;14800;48.174;9.798;2023-10-08T02:41:15;7.78;;;4.78;;
27313;SDS011;14800;48.174;9.798;2023-10-08T02:43:42;5.88;;;4.15;;
27313;SDS011;14800;48.174;9.798;2023-10-08T02:46:10;6.22;;;4.25;;
27313;SDS011;14800;48.174;9.798;2023-10-08T02:48:40;7.70;;;4.75;;
27313;SDS011;14800;48.174;9.798;2023-10-08T02:51:06;6.05;;;3.95;;
27313;SDS011;14800;48.174;9.798;2023-10-08T02:53:40;9.18;;;4.28;;
27313;SDS011;14800;48.174;9.798;2023-10-08T02:56:07;7.45;;;4.38;;
27313;SDS011;14800;48.174;9.798;2023-10-08T02:58:37;7.45;;;4.47;;
27313;SDS011;14800;48.174;9.798;2023-10-08T03:01:04;8.00;;;4.63;;
27313;SDS011;14800;48.174;9.798;2023-10-08T03:03:30;7.15;;;4.65;;
27313;SDS011;14800;48.174;9.798;2023-10-08T03:05:57;7.85;;;4.60;;
27313;SDS011;14800;48.174;9.798;2023-10-08T03:08:23;6.32;;;4.60;;
27313;SDS011;14800;48.174;9.798;2023-10-08T03:10:52;6.80;;;4.53;;
27313;SDS011;14800;48.174;9.798;2023-10-08T03:13:21;7.70;;;4.53;;
27313;SDS011;14800;48.174;9.798;2023-10-08T03:15:47;8.23;;;4.63;;
27313;SDS011;14800;48.174;9.798;2023-10-08T03:18:13;6.43;;;4.00;;
27313;SDS011;14800;48.174;9.798;2023-10-08T03:20:42;6.18;;;4.05;;
27313;SDS011;14800;48.174;9.798;2023-10-08T03:23:08;5.07;;;3.83;;
27313;SDS011;14800;48.174;9.798;2023-10-08T03:25:58;5.70;;;3.95;;
27313;SDS011;14800;48.174;9.798;2023-10-08T03:28:34;6.43;;;4.05;;
27313;SDS011;14800;48.174;9.798;2023-10-08T03:31:00;6.20;;;4.15;;
27313;SDS011;14800;48.174;9.798;2023-10-08T03:33:39;6.05;;;3.65;;
27313;SDS011;14800;48.174;9.798;2023-10-08T03:36:05;5.68;;;3.90;;
27313;SDS011;14800;48.174;9.798;2023-10-08T03:38:55;6.00;;;4.20;;
27313;SDS011;14800;48.174;9.798;2023-10-08T03:43:52;6.43;;;4.25;;
27313;SDS011;14800;48.174;9.798;2023-10-08T03:46:21;6.55;;;4.30;;
27313;SDS011;14800;48.174;9.798;2023-10-08T03:48:48;6.18;;;3.80;;
27313;SDS011;14800;48.174;9.798;2023-10-08T03:51:16;8.88;;;4.35;;
27313;SDS011;14800;48.174;9.798;2023-10-08T03:53:46;6.50;;;4.13;;
27313;SDS011;14800;48.174;9.798;2023-10-08T03:56:32;7.03;;;4.20;;
27313;SDS011;14800;48.174;9.798;2023-10-08T03:59:01;5.72;;;4.00;;
27313;SDS011;14800;48.174;9.798;2023-10-08T04:01:38;6.47;;;3.90;;
27313;SDS011;14800;48.174;9.798;2023-10-08T04:04:05;8.13;;;4.53;;
27313;SDS011;14800;48.174;9.798;2023-10-08T04:06:39;6.33;;;4.17;;
27313;SDS011;14800;48.174;9.798;2023-10-08T04:09:15;4.65;;;3.50;;
27313;SDS011;14800;48.174;9.798;2023-10-08T04:11:51;7.43;;;4.15;;
27313;SDS011;14800;48.174;9.798;2023-10-08T04:14:20;5.72;;;3.80;;
27313;SDS011;14800;48.174;9.798;2023-10-08T04:16:49;5.85;;;4.07;;
27313;SDS011;14800;48.174;9.798;2023-10-08T04:19:20;6.88;;;4.00;;
27313;SDS011;14800;48.174;9.798;2023-10-08T04:21:51;8.02;;;4.35;;
27313;SDS011;14800;48.174;9.798;2023-10-08T04:24:24;7.40;;;3.80;;
27313;SDS011;14800;48.174;9.798;2023-10-08T04:27:00;5.97;;;3.78;;
27313;SDS011;14800;48.174;9.798;2023-10-08T04:29:33;6.20;;;3.83;;
27313;SDS011;14800;48.174;9.798;2023-10-08T04:32:01;7.03;;;4.22;;
27313;SDS011;14800;48.174;9.798;2023-10-08T04:34:32;5.00;;;4.10;;
27313;SDS011;14800;48.174;9.798;2023-10-08T04:37:01;5.38;;;3.85;;
27313;SDS011;14800;48.174;9.798;2023-10-08T04:39:28;7.35;;;3.70;;
27313;SDS011;14800;48.174;9.798;2023-10-08T04:42:00;5.72;;;3.88;;
27313;SDS011;14800;48.174;9.798;2023-10-08T04:44:38;6.38;;;4.20;;
27313;SDS011;14800;48.174;9.798;2023-10-08T04:47:07;6.30;;;3.95;;
27313;SDS011;14800;48.174;9.798;2023-10-08T04:49:55;5.40;;;3.55;;
27313;SDS011;14800;48.174;9.798;2023-10-08T04:52:21;7.15;;;3.92;;
27313;SDS011;14800;48.174;9.798;2023-10-08T04:54:50;6.40;;;4.10;;
27313;SDS011;14800;48.174;9.798;2023-10-08T04:57:22;7.05;;;3.90;;
27313;SDS011;14800;48.174;9.798;2023-10-08T04:59:48;5.57;;;3.70;;
27313;SDS011;14800;48.174;9.798;2023-10-08T05:02:15;6.82;;;3.63;;
27313;SDS011;14800;48.174;9.798;2023-10-08T05:04:44;5.25;;;3.55;;
27313;SDS011;14800;48.174;9.798;2023-10-08T05:07:20;6.18;;;3.83;;
27313;SDS011;14800;48.174;9.798;2023-10-08T05:10:05;6.57;;;4.15;;
27313;SDS011;14800;48.174;9.798;2023-10-08T05:12:32;6.22;;;4.00;;
27313;SDS011;14800;48.174;9.798;2023-10-08T05:14:57;6.65;;;4.05;;
27313;SDS011;14800;48.174;9.798;2023-10-08T05:17:45;5.45;;;3.83;;
27313;SDS011;14800;48.174;9.798;2023-10-08T05:20:14;5.25;;;3.65;;
27313;SDS011;14800;48.174;9.798;2023-10-08T05:22:59;6.85;;;4.30;;
27313;SDS011;14800;48.174;9.798;2023-10-08T05:25:54;5.45;;;3.85;;
27313;SDS011;14800;48.174;9.798;2023-10-08T05:28:45;5.65;;;3.95;;
27313;SDS011;14800;48.174;9.798;2023-10-08T05:31:28;5.78;;;3.88;;
27313;SDS011;14800;48.174;9.798;2023-10-08T05:34:12;6.30;;;4.05;;
27313;SDS011;14800;48.174;9.798;2023-10-08T05:36:57;7.03;;;4.18;;
27313;SDS011;14800;48.174;9.798;2023-10-08T05:39:29;9.05;;;3.95;;
27313;SDS011;14800;48.174;9.798;2023-10-08T05:42:05;5.90;;;3.95;;
27313;SDS011;14800;48.174;9.798;2023-10-08T05:44:57;7.55;;;4.00;;
27313;SDS011;14800;48.174;9.798;2023-10-08T05:47:39;5.93;;;3.72;;
27313;SDS011;14800;48.174;9.798;2023-10-08T05:50:16;6.68;;;3.63;;
27313;SDS011;14800;48.174;9.798;2023-10-08T05:52:42;8.32;;;3.78;;
27313;SDS011;14800;48.174;9.798;2023-10-08T05:55:30;7.18;;;3.60;;
27313;SDS011;14800;48.174;9.798;2023-10-08T05:58:06;5.35;;;3.63;;
27313;SDS011;14800;48.174;9.798;2023-10-08T06:00:44;5.90;;;4.03;;
27313;SDS011;14800;48.174;9.798;2023-10-08T06:03:26;6.53;;;3.78;;
27313;SDS011;14800;48.174;9.798;2023-10-08T06:06:01;5.50;;;3.72;;
27313;SDS011;14800;48.174;9.798;2023-10-08T06:08:36;6.28;;;3.80;;
27313;SDS011;14800;48.174;9.798;2023-10-08T06:11:20;6.93;;;4.10;;
27313;SDS011;14800;48.174;9.798;2023-10-08T06:14:04;7.85;;;4.57;;
27313;SDS011;14800;48.174;9.798;2023-10-08T06:16:44;9.65;;;5.43;;
27313;SDS011;14800;48.174;9.798;2023-10-08T06:19:12;11.48;;;6.00;;
27313;SDS011;14800;48.174;9.798;2023-10-08T06:21:38;10.45;;;6.00;;
27313;SDS011;14800;48.174;9.798;2023-10-08T06:24:06;9.35;;;5.32;;
27313;SDS011;14800;48.174;9.798;2023-10-08T06:26:38;7.55;;;4.57;;
27313;SDS011;14800;48.174;9.798;2023-10-08T06:29:11;8.80;;;5.20;;
27313;SDS011;14800;48.174;9.798;2023-10-08T06:31:55;12.20;;;6.45;;
27313;SDS011;14800;48.174;9.798;2023-10-08T06:34:22;11.10;;;6.78;;
27313;SDS011;14800;48.174;9.798;2023-10-08T06:36:52;9.38;;;6.43;;
27313;SDS011;14800;48.174;9.798;2023-10-08T06:39:22;8.10;;;5.10;;
27313;SDS011;14800;48.174;9.798;2023-10-08T06:41:58;11.23;;;5.15;;
27313;SDS011;14800;48.174;9.798;2023-10-08T06:44:25;11.48;;;5.65;;
27313;SDS011;14800;48.174;9.798;2023-10-08T06:46:52;9.90;;;6.25;;
27313;SDS011;14800;48.174;9.798;2023-10-08T06:49:20;8.43;;;5.68;;
27313;SDS011;14800;48.174;9.798;2023-10-08T06:51:48;7.32;;;4.97;;
27313;SDS011;14800;48.174;9.798;2023-10-08T06:54:15;7.07;;;4.40;;
27313;SDS011;14800;48.174;9.798;2023-10-08T06:56:43;6.57;;;4.07;;
27313;SDS011;14800;48.174;9.798;2023-10-08T06:59:14;8.20;;;4.25;;
27313;SDS011;14800;48.174;9.798;2023-10-08T07:01:41;9.45;;;4.75;;
27313;SDS011;14800;48.174;9.798;2023-10-08T07:04:11;9.25;;;4.65;;
27313;SDS011;14800;48.174;9.798;2023-10-08T07:06:43;6.50;;;4.25;;
27313;SDS011;14800;48.174;9.798;2023-10-08T07:09:11;11.15;;;4.72;;
27313;SDS011;14800;48.174;9.798;2023-10-08T07:11:49;8.63;;;5.05;;
27313;SDS011;14800;48.174;9.798;2023-10-08T07:14:19;10.80;;;4.60;;
27313;SDS011;14800;48.174;9.798;2023-10-08T07:16:51;9.57;;;5.10;;
27313;SDS011;14800;48.174;9.798;2023-10-08T07:19:23;7.07;;;4.22;;
27313;SDS011;14800;48.174;9.798;2023-10-08T07:21:58;8.95;;;4.43;;
27313;SDS011;14800;48.174;9.798;2023-10-08T07:24:28;9.57;;;4.57;;
27313;SDS011;14800;48.174;9.798;2023-10-08T07:26:56;8.10;;;4.32;;
27313;SDS011;14800;48.174;9.798;2023-10-08T07:29:21;8.05;;;4.13;;
27313;SDS011;14800;48.174;9.798;2023-10-08T07:31:47;7.90;;;4.38;;
27313;SDS011;14800;48.174;9.798;2023-10-08T07:34:18;7.45;;;4.32;;
27313;SDS011;14800;48.174;9.798;2023-10-08T07:36:50;7.32;;;4.50;;
27313;SDS011;14800;48.174;9.798;2023-10-08T07:39:17;7.18;;;4.30;;
27313;SDS011;14800;48.174;9.798;2023-10-08T07:41:49;6.82;;;4.40;;
27313;SDS011;14800;48.174;9.798;2023-10-08T07:44:15;6.70;;;4.10;;
27313;SDS011;14800;48.174;9.798;2023-10-08T07:46:41;7.22;;;4.13;;
27313;SDS011;14800;48.174;9.798;2023-10-08T07:49:06;9.65;;;4.30;;
27313;SDS011;14800;48.174;9.798;2023-10-08T07:51:32;7.35;;;4.32;;
27313;SDS011;14800;48.174;9.798;2023-10-08T07:53:59;6.80;;;4.03;;
27313;SDS011;14800;48.174;9.798;2023-10-08T07:56:25;8.40;;;4.30;;
27313;SDS011;14800;48.174;9.798;2023-10-08T07:58:51;8.05;;;4.38;;
27313;SDS011;14800;48.174;9.798;2023-10-08T08:01:17;8.05;;;4.25;;
27313;SDS011;14800;48.174;9.798;2023-10-08T08:03:45;10.45;;;4.55;;
27313;SDS011;14800;48.174;9.798;2023-10-08T08:06:13;6.80;;;4.00;;
27313;SDS011;14800;48.174;9.798;2023-10-08T08:08:40;9.13;;;4.32;;
27313;SDS011;14800;48.174;9.798;2023-10-08T08:11:07;9.07;;;4.57;;
27313;SDS011;14800;48.174;9.798;2023-10-08T08:13:42;7.85;;;4.35;;
27313;SDS011;14800;48.174;9.798;2023-10-08T08:16:11;7.88;;;4.35;;
27313;SDS011;14800;48.174;9.798;2023-10-08T08:18:45;7.55;;;4.07;;
27313;SDS011;14800;48.174;9.798;2023-10-08T08:21:12;7.55;;;4.30;;
27313;SDS011;14800;48.174;9.798;2023-10-08T08:23:44;7.80;;;4.22;;
27313;SDS011;14800;48.174;9.798;2023-10-08T08:26:17;6.32;;;3.92;;
27313;SDS011;14800;48.174;9.798;2023-10-08T08:28:57;9.07;;;4.10;;
27313;SDS011;14800;48.174;9.798;2023-10-08T08:31:29;6.85;;;3.88;;
27313;SDS011;14800;48.174;9.798;2023-10-08T08:33:56;7.18;;;4.07;;
27313;SDS011;14800;48.174;9.798;2023-10-08T08:36:26;9.27;;;3.72;;
27313;SDS011;14800;48.174;9.798;2023-10-08T08:38:52;8.73;;;3.70;;
27313;SDS011;14800;48.174;9.798;2023-10-08T08:41:19;8.70;;;4.18;;
27313;SDS011;14800;48.174;9.798;2023-10-08T08:43:52;9.23;;;4.65;;
27313;SDS011;14800;48.174;9.798;2023-10-08T08:46:28;6.13;;;3.85;;
27313;SDS011;14800;48.174;9.798;2023-10-08T08:48:58;8.88;;;4.80;;
27313;SDS011;14800;48.174;9.798;2023-10-08T08:51:30;7.15;;;4.25;;
27313;SDS011;14800;48.174;9.798;2023-10-08T08:53:56;7.28;;;4.13;;
27313;SDS011;14800;48.174;9.798;2023-10-08T08:56:25;7.50;;;4.28;;
27313;SDS011;14800;48.174;9.798;2023-10-08T08:58:53;8.40;;;4.05;;
27313;SDS011;14800;48.174;9.798;2023-10-08T09:01:20;5.90;;;3.55;;
27313;SDS011;14800;48.174;9.798;2023-10-08T09:03:45;7.28;;;3.95;;
27313;SDS011;14800;48.174;9.798;2023-10-08T09:06:13;15.07;;;8.95;;
27313;SDS011;14800;48.174;9.798;2023-10-08T09:08:39;14.02;;;8.23;;
27313;SDS011;14800;48.174;9.798;2023-10-08T09:11:13;12.45;;;6.68;;
27313;SDS011;14800;48.174;9.798;2023-10-08T09:13:42;9.63;;;5.22;;
27313;SDS011;14800;48.174;9.798;2023-10-08T09:16:12;7.03;;;4.50;;
27313;SDS011;14800;48.174;9.798;2023-10-08T09:18:43;10.23;;;4.90;;
27313;SDS011;14800;48.174;9.798;2023-10-08T09:21:11;7.05;;;4.05;;
27313;SDS011;14800;48.174;9.798;2023-10-08T09:23:43;10.05;;;4.50;;
27313;SDS011;14800;48.174;9.798;2023-10-08T09:26:12;10.13;;;4.60;;
27313;SDS011;14800;48.174;9.798;2023-10-08T09:28:46;8.05;;;4.25;;
27313;SDS011;14800;48.174;9.798;2023-10-08T09:31:12;9.55;;;4.00;;
27313;SDS011;14800;48.174;9.798;2023-10-08T09:33:38;9.02;;;3.75;;
27313;SDS011;14800;48.174;9.798;2023-10-08T09:36:05;7.45;;;3.72;;
27313;SDS011;14800;48.174;9.798;2023-10-08T09:38:34;7.32;;;3.95;;
27313;SDS011;14800;48.174;9.798;2023-10-08T09:41:02;5.95;;;4.03;;
27313;SDS011;14800;48.174;9.798;2023-10-08T09:43:28;7.97;;;4.10;;
27313;SDS011;14800;48.174;9.798;2023-10-08T09:46:08;9.85;;;4.38;;
27313;SDS011;14800;48.174;9.798;2023-10-08T09:48:53;9.38;;;3.80;;
27313;SDS011;14800;48.174;9.798;2023-10-08T09:51:25;7.50;;;3.70;;
27313;SDS011;14800;48.174;9.798;2023-10-08T09:56:35;6.63;;;3.80;;
27313;SDS011;14800;48.174;9.798;2023-10-08T09:59:01;6.63;;;3.63;;
27313;SDS011;14800;48.174;9.798;2023-10-08T10:01:27;7.90;;;3.70;;
27313;SDS011;14800;48.174;9.798;2023-10-08T10:03:56;5.85;;;3.50;;
27313;SDS011;14800;48.174;9.798;2023-10-08T10:06:25;11.18;;;3.67;;
27313;SDS011;14800;48.174;9.798;2023-10-08T10:08:51;6.45;;;3.75;;
27313;SDS011;14800;48.174;9.798;2023-10-08T10:11:25;9.60;;;3.53;;
27313;SDS011;14800;48.174;9.798;2023-10-08T10:13:57;6.30;;;3.70;;
27313;SDS011;14800;48.174;9.798;2023-10-08T10:16:26;8.90;;;3.50;;
27313;SDS011;14800;48.174;9.798;2023-10-08T10:18:55;6.97;;;3.40;;
27313;SDS011;14800;48.174;9.798;2023-10-08T10:21:31;16.33;;;3.30;;
27313;SDS011;14800;48.174;9.798;2023-10-08T10:23:58;7.45;;;3.30;;
27313;SDS011;14800;48.174;9.798;2023-10-08T10:31:44;7.85;;;2.92;;
27313;SDS011;14800;48.174;9.798;2023-10-08T10:34:17;9.38;;;3.13;;
27313;SDS011;14800;48.174;9.798;2023-10-08T10:36:47;7.65;;;3.20;;
27313;SDS011;14800;48.174;9.798;2023-10-08T10:39:19;6.88;;;3.15;;
27313;SDS011;14800;48.174;9.798;2023-10-08T10:41:59;7.55;;;3.33;;
27313;SDS011;14800;48.174;9.798;2023-10-08T10:44:31;6.97;;;3.08;;
27313;SDS011;14800;48.174;9.798;2023-10-08T10:46:58;8.23;;;3.25;;
27313;SDS011;14800;48.174;9.798;2023-10-08T10:49:43;14.80;;;3.65;;
27313;SDS011;14800;48.174;9.798;2023-10-08T10:55:06;7.95;;;3.10;;
27313;SDS011;14800;48.174;9.798;2023-10-08T10:57:54;6.47;;;3.47;;
27313;SDS011;14800;48.174;9.798;2023-10-08T11:00:21;9.00;;;3.70;;
27313;SDS011;14800;48.174;9.798;2023-10-08T11:02:57;6.38;;;3.30;;
27313;SDS011;14800;48.174;9.798;2023-10-08T11:05:44;6.43;;;3.40;;
27313;SDS011;14800;48.174;9.798;2023-10-08T11:08:13;8.38;;;3.25;;
27313;SDS011;14800;48.174;9.798;2023-10-08T11:10:43;5.10;;;3.25;;
27313;SDS011;14800;48.174;9.798;2023-10-08T11:13:15;6.45;;;3.80;;
27313;SDS011;14800;48.174;9.798;2023-10-08T11:15:42;8.50;;;3.63;;
27313;SDS011;14800;48.174;9.798;2023-10-08T11:18:14;9.65;;;3.50;;
27313;SDS011;14800;48.174;9.798;2023-10-08T11:20:40;6.07;;;3.58;;
27313;SDS011;14800;48.174;9.798;2023-10-08T11:23:09;10.25;;;3.95;;
27313;SDS011;14800;48.174;9.798;2023-10-08T11:25:58;8.35;;;3.42;;
27313;SDS011;14800;48.174;9.798;2023-10-08T11:28:37;9.82;;;3.53;;
27313;SDS011;14800;48.174;9.798;2023-10-08T11:31:07;7.15;;;3.33;;
27313;SDS011;14800;48.174;9.798;2023-10-08T11:33:36;7.85;;;3.85;;
27313;SDS011;14800;48.174;9.798;2023-10-08T11:36:05;8.27;;;3.72;;
27313;SDS011;14800;48.174;9.798;2023-10-08T11:38:41;6.43;;;3.55;;
27313;SDS011;14800;48.174;9.798;2023-10-08T11:43:53;6.82;;;3.53;;
27313;SDS011;14800;48.174;9.798;2023-10-08T11:46:31;5.95;;;3.55;;
27313;SDS011;14800;48.174;9.798;2023-10-08T11:49:04;4.88;;;3.22;;
27313;SDS011;14800;48.174;9.798;2023-10-08T11:51:33;6.60;;;3.58;;
27313;SDS011;14800;48.174;9.798;2023-10-08T11:54:00;8.77;;;3.60;;
27313;SDS011;14800;48.174;9.798;2023-10-08T11:56:29;12.60;;;3.88;;
27313;SDS011;14800;48.174;9.798;2023-10-08T11:58:57;8.73;;;3.47;;
27313;SDS011;14800;48.174;9.798;2023-10-08T12:01:23;6.50;;;3.55;;
27313;SDS011;14800;48.174;9.798;2023-10-08T12:03:49;5.78;;;3.35;;
27313;SDS011;14800;48.174;9.798;2023-10-08T12:06:16;6.03;;;3.33;;
27313;SDS011;14800;48.174;9.798;2023-10-08T12:08:46;9.13;;;3.78;;
27313;SDS011;14800;48.174;9.798;2023-10-08T12:11:18;8.15;;;3.10;;
27313;SDS011;14800;48.174;9.798;2023-10-08T12:13:44;6.53;;;3.05;;
27313;SDS011;14800;48.174;9.798;2023-10-08T12:16:13;6.25;;;3.45;;
27313;SDS011;14800;48.174;9.798;2023-10-08T12:18:49;6.03;;;3.17;;
27313;SDS011;14800;48.174;9.798;2023-10-08T12:21:27;9.82;;;3.78;;
27313;SDS011;14800;48.174;9.798;2023-10-08T12:23:57;9.35;;;3.42;;
27313;SDS011;14800;48.174;9.798;2023-10-08T12:26:23;7.18;;;3.60;;
27313;SDS011;14800;48.174;9.798;2023-10-08T12:28:49;10.02;;;3.35;;
27313;SDS011;14800;48.174;9.798;2023-10-08T12:31:18;8.23;;;3.45;;
27313;SDS011;14800;48.174;9.798;2023-10-08T12:33:47;11.05;;;3.35;;
27313;SDS011;14800;48.174;9.798;2023-10-08T12:36:13;7.93;;;3.38;;
27313;SDS011;14800;48.174;9.798;2023-10-08T12:38:41;6.25;;;3.40;;
27313;SDS011;14800;48.174;9.798;2023-10-08T12:41:11;7.90;;;3.80;;
27313;SDS011;14800;48.174;9.798;2023-10-08T12:43:40;10.63;;;3.67;;
27313;SDS011;14800;48.174;9.798;2023-10-08T12:46:11;7.18;;;3.28;;
27313;SDS011;14800;48.174;9.798;2023-10-08T12:48:43;11.10;;;4.13;;
27313;SDS011;14800;48.174;9.798;2023-10-08T12:51:12;4.88;;;3.13;;
27313;SDS011;14800;48.174;9.798;2023-10-08T12:53:39;7.35;;;3.78;;
27313;SDS011;14800;48.174;9.798;2023-10-08T12:56:05;8.32;;;3.30;;
27313;SDS011;14800;48.174;9.798;2023-10-08T12:58:33;6.45;;;3.40;;
27313;SDS011;14800;48.174;9.798;2023-10-08T13:01:12;6.10;;;3.28;;
27313;SDS011;14800;48.174;9.798;2023-10-08T13:03:39;7.20;;;3.35;;
27313;SDS011;14800;48.174;9.798;2023-10-08T13:06:17;7.10;;;3.30;;
27313;SDS011;14800;48.174;9.798;2023-10-08T13:08:50;6.45;;;3.35;;
27313;SDS011;14800;48.174;9.798;2023-10-08T13:11:18;5.18;;;2.80;;
27313;SDS011;14800;48.174;9.798;2023-10-08T13:13:54;7.45;;;3.70;;
27313;SDS011;14800;48.174;9.798;2023-10-08T13:16:24;6.13;;;3.30;;
27313;SDS011;14800;48.174;9.798;2023-10-08T13:18:51;7.68;;;3.50;;
27313;SDS011;14800;48.174;9.798;2023-10-08T13:21:17;8.65;;;3.08;;
27313;SDS011;14800;48.174;9.798;2023-10-08T13:23:49;7.28;;;3.00;;
27313;SDS011;14800;48.174;9.798;2023-10-08T13:26:18;5.75;;;3.17;;
27313;SDS011;14800;48.174;9.798;2023-10-08T13:28:47;8.93;;;3.33;;
27313;SDS011;14800;48.174;9.798;2023-10-08T13:31:13;7.88;;;3.38;;
27313;SDS011;14800;48.174;9.798;2023-10-08T13:33:41;8.80;;;3.40;;
27313;SDS011;14800;48.174;9.798;2023-10-08T13:36:09;7.55;;;2.95;;
27313;SDS011;14800;48.174;9.798;2023-10-08T13:38:36;3.85;;;2.65;;
27313;SDS011;14800;48.174;9.798;2023-10-08T13:41:03;6.40;;;3.40;;
27313;SDS011;14800;48.174;9.798;2023-10-08T13:43:34;8.73;;;3.92;;
27313;SDS011;14800;48.174;9.798;2023-10-08T13:46:03;8.75;;;3.63;;
27313;SDS011;14800;48.174;9.798;2023-10-08T13:48:32;7.97;;;3.33;;
27313;SDS011;14800;48.174;9.798;2023-10-08T13:50:59;9.27;;;4.00;;
27313;SDS011;14800;48.174;9.798;2023-10-08T13:53:26;7.65;;;3.60;;
27313;SDS011;14800;48.174;9.798;2023-10-08T13:55:56;8.63;;;3.50;;
27313;SDS011;14800;48.174;9.798;2023-10-08T13:58:24;6.20;;;3.33;;
27313;SDS011;14800;48.174;9.798;2023-10-08T14:00:50;5.60;;;2.97;;
27313;SDS011;14800;48.174;9.798;2023-10-08T14:03:18;9.02;;;3.22;;
27313;SDS011;14800;48.174;9.798;2023-10-08T14:05:46;4.82;;;2.95;;
27313;SDS011;14800;48.174;9.798;2023-10-08T14:08:15;6.45;;;3.30;;
27313;SDS011;14800;48.174;9.798;2023-10-08T14:10:42;7.47;;;3.30;;
27313;SDS011;14800;48.174;9.798;2023-10-08T14:13:09;8.93;;;3.42;;
27313;SDS011;14800;48.174;9.798;2023-10-08T14:15:34;7.00;;;3.22;;
27313;SDS011;14800;48.174;9.798;2023-10-08T14:18:07;9.60;;;3.53;;
27313;SDS011;14800;48.174;9.798;2023-10-08T14:20:33;8.93;;;3.20;;
27313;SDS011;14800;48.174;9.798;2023-10-08T14:22:59;10.18;;;3.35;;
27313;SDS011;14800;48.174;9.798;2023-10-08T14:25:27;9.15;;;3.25;;
27313;SDS011;14800;48.174;9.798;2023-10-08T14:27:58;8.15;;;3.30;;
27313;SDS011;14800;48.174;9.798;2023-10-08T14:30:29;9.32;;;3.33;;
27313;SDS011;14800;48.174;9.798;2023-10-08T14:32:58;9.95;;;3.55;;
27313;SDS011;14800;48.174;9.798;2023-10-08T14:35:23;10.82;;;3.17;;
27313;SDS011;14800;48.174;9.798;2023-10-08T14:38:08;6.97;;;3.42;;
27313;SDS011;14800;48.174;9.798;2023-10-08T14:40:53;6.88;;;3.45;;
27313;SDS011;14800;48.174;9.798;2023-10-08T14:43:37;10.43;;;3.55;;
27313;SDS011;14800;48.174;9.798;2023-10-08T14:46:02;9.45;;;3.38;;
27313;SDS011;14800;48.174;9.798;2023-10-08T14:48:32;6.20;;;3.08;;
27313;SDS011;14800;48.174;9.798;2023-10-08T14:51:00;8.32;;;3.22;;
27313;SDS011;14800;48.174;9.798;2023-10-08T14:53:28;10.05;;;3.80;;
27313;SDS011;14800;48.174;9.798;2023-10-08T14:55:54;6.63;;;3.20;;
27313;SDS011;14800;48.174;9.798;2023-10-08T14:58:20;8.52;;;3.50;;
27313;SDS011;14800;48.174;9.798;2023-10-08T15:00:47;8.55;;;3.55;;
27313;SDS011;14800;48.174;9.798;2023-10-08T15:03:13;6.30;;;3.05;;
27313;SDS011;14800;48.174;9.798;2023-10-08T15:05:39;5.93;;;3.15;;
27313;SDS011;14800;48.174;9.798;2023-10-08T15:08:08;9.70;;;3.50;;
27313;SDS011;14800;48.174;9.798;2023-10-08T15:10:34;8.52;;;3.65;;
27313;SDS011;14800;48.174;9.798;2023-10-08T15:13:00;7.18;;;3.45;;
27313;SDS011;14800;48.174;9.798;2023-10-08T15:15:26;8.77;;;3.47;;
27313;SDS011;14800;48.174;9.798;2023-10-08T15:17:56;7.65;;;3.13;;
27313;SDS011;14800;48.174;9.798;2023-10-08T15:20:22;7.30;;;3.38;;
27313;SDS011;14800;48.174;9.798;2023-10-08T15:22:48;8.57;;;3.65;;
27313;SDS011;14800;48.174;9.798;2023-10-08T15:25:15;7.95;;;3.40;;